Time;durP1;ratioP1;P1;durP2;ratioP2;P2;SDS_P1;SDS_P2;PMS_P1;PMS_P2;Temp;Humidity;BMP_temperature;BMP_pressure;BME280_temperature;BME280_humidity;BME280_pressure;Samples;Min_cycle;Max_cycle;Signal;HPM_P1;HPM_P2
2022/12/01 00:00:54;;;;;;;72.68;33.63;;;2.00;99.90;;;;;;2055290;28;20425;-64
2022/12/01 00:01:55;;;;;;;72.65;33.22;;;2.00;99.90;;;;;;2055391;28;20027;-67
2022/12/01 00:02:57;;;;;;;68.38;32.45;;;2.00;99.90;;;;;;2055338;28;20500;-67
2022/12/01 00:03:58;;;;;;;66.63;31.48;;;2.00;99.90;;;;;;2062263;28;20069;-66
2022/12/01 00:04:59;;;;;;;64.95;30.65;;;2.00;99.90;;;;;;2062337;28;20857;-66
2022/12/01 00:06:12;;;;;;;69.13;31.13;;;2.00;99.90;;;;;;2061912;28;20053;-65
2022/12/01 00:07:12;;;;;;;74.93;32.67;;;2.00;99.90;;;;;;2061180;28;20030;-66
2022/12/01 00:08:13;;;;;;;71.72;32.75;;;2.00;99.90;;;;;;2055398;28;20387;-66
2022/12/01 00:10:33;;;;;;;67.50;31.85;;;2.00;99.90;;;;;;2059516;28;20034;-66
2022/12/01 00:11:35;;;;;;;71.97;33.17;;;2.00;99.90;;;;;;2054662;28;20133;-67
2022/12/01 00:12:42;;;;;;;71.35;33.58;;;2.00;99.90;;;;;;2047235;28;20059;-66
2022/12/01 00:13:42;;;;;;;71.38;31.52;;;2.00;99.90;;;;;;2047361;29;20508;-66
2022/12/01 00:14:53;;;;;;;69.75;33.05;;;2.00;99.90;;;;;;2047196;28;20038;-66
2022/12/01 00:15:54;;;;;;;68.25;31.30;;;2.00;99.90;;;;;;2046929;28;20398;-66
2022/12/01 00:16:55;;;;;;;71.95;32.20;;;2.00;99.90;;;;;;2047271;29;20055;-67
2022/12/01 00:17:57;;;;;;;70.93;31.77;;;2.00;99.90;;;;;;2047295;29;20418;-66
2022/12/01 00:18:57;;;;;;;75.88;33.78;;;2.00;99.90;;;;;;2047354;28;20034;-66
2022/12/01 00:19:58;;;;;;;72.90;33.15;;;2.00;99.90;;;;;;2046524;29;20483;-66
2022/12/01 00:20:59;;;;;;;69.85;32.38;;;2.00;99.90;;;;;;2048654;28;20027;-66
2022/12/01 00:21:59;;;;;;;71.47;32.55;;;2.00;99.90;;;;;;2060906;28;20496;-66
2022/12/01 00:23:00;;;;;;;68.72;31.60;;;2.10;99.90;;;;;;2046410;28;20059;-66
2022/12/01 00:24:01;;;;;;;70.70;32.58;;;2.10;99.90;;;;;;2054375;28;20074;-66
2022/12/01 00:25:03;;;;;;;73.43;33.08;;;2.10;99.90;;;;;;2055468;28;20621;-66
2022/12/01 00:26:04;;;;;;;75.00;33.08;;;2.00;99.90;;;;;;2054944;28;20433;-66
2022/12/01 00:27:05;;;;;;;74.93;34.17;;;2.00;99.90;;;;;;2055149;28;20039;-66
2022/12/01 00:28:07;;;;;;;74.85;33.00;;;2.10;99.90;;;;;;2046477;28;20031;-66
2022/12/01 00:29:08;;;;;;;75.00;33.80;;;2.00;99.90;;;;;;2046615;28;20190;-66
2022/12/01 00:30:11;;;;;;;75.75;33.92;;;2.00;99.90;;;;;;2055112;28;20117;-66
2022/12/01 00:31:12;;;;;;;74.07;33.38;;;2.00;99.90;;;;;;2054947;28;20497;-67
2022/12/01 00:32:13;;;;;;;77.53;33.72;;;2.00;99.90;;;;;;2055052;28;20061;-66
2022/12/01 00:33:13;;;;;;;78.47;33.67;;;2.00;99.90;;;;;;2055139;28;20066;-66
2022/12/01 00:34:22;;;;;;;80.53;34.58;;;2.00;99.90;;;;;;2055004;28;20489;-66
2022/12/01 00:35:23;;;;;;;78.55;34.50;;;2.00;99.90;;;;;;2055380;28;20035;-67
2022/12/01 00:36:23;;;;;;;76.13;33.53;;;2.00;99.90;;;;;;2054723;28;20431;-66
2022/12/01 00:37:24;;;;;;;75.43;33.42;;;2.00;99.90;;;;;;2055242;28;20043;-66
2022/12/01 00:38:25;;;;;;;77.95;33.53;;;1.90;99.90;;;;;;2063067;28;20114;-66
2022/12/01 00:39:26;;;;;;;75.18;33.38;;;2.00;99.90;;;;;;2063356;28;20109;-66
2022/12/01 00:40:27;;;;;;;75.28;32.75;;;1.90;99.90;;;;;;2056009;28;20081;-66
2022/12/01 00:41:27;;;;;;;70.85;32.67;;;1.90;99.90;;;;;;2056131;28;20026;-67
2022/12/01 00:42:28;;;;;;;77.18;33.15;;;1.90;99.90;;;;;;2056286;28;20018;-67
2022/12/01 00:43:29;;;;;;;72.65;33.03;;;1.90;99.90;;;;;;2057359;28;20025;-66
2022/12/01 00:44:30;;;;;;;82.88;34.72;;;1.90;99.90;;;;;;2057164;28;20034;-66
2022/12/01 00:45:30;;;;;;;76.05;33.85;;;1.90;99.90;;;;;;2056903;28;20074;-66
2022/12/01 00:46:31;;;;;;;73.78;32.95;;;1.90;99.90;;;;;;2069931;28;20038;-66
2022/12/01 00:47:32;;;;;;;77.68;33.50;;;1.90;99.90;;;;;;2056998;28;20027;-65
2022/12/01 00:48:33;;;;;;;80.03;34.03;;;2.00;99.90;;;;;;2054708;28;20027;-66
2022/12/01 00:49:33;;;;;;;79.10;33.55;;;1.90;99.90;;;;;;2054854;28;20035;-66
2022/12/01 00:50:34;;;;;;;78.30;35.05;;;1.90;99.90;;;;;;2054348;28;20034;-66
2022/12/01 00:51:35;;;;;;;76.20;34.80;;;1.90;99.90;;;;;;2054530;28;20041;-66
2022/12/01 00:52:35;;;;;;;79.20;35.65;;;1.90;99.90;;;;;;2054339;28;20026;-66
2022/12/01 00:53:36;;;;;;;79.88;34.80;;;1.90;99.90;;;;;;2054509;28;20110;-66
2022/12/01 00:54:37;;;;;;;78.03;34.35;;;1.90;99.90;;;;;;2054722;28;20031;-66
2022/12/01 00:55:39;;;;;;;81.80;34.55;;;1.80;99.90;;;;;;2062112;28;20038;-68
2022/12/01 00:56:39;;;;;;;77.32;34.50;;;1.80;99.90;;;;;;2062271;28;20109;-66
2022/12/01 00:57:40;;;;;;;78.18;34.45;;;1.80;99.90;;;;;;2054330;28;20019;-66
2022/12/01 00:58:41;;;;;;;83.75;35.92;;;1.80;99.90;;;;;;2054594;28;20117;-66
2022/12/01 00:59:41;;;;;;;76.30;33.55;;;1.80;99.90;;;;;;2055036;28;20054;-65
2022/12/01 01:00:42;;;;;;;71.57;32.92;;;1.80;99.90;;;;;;2054519;28;20022;-66
2022/12/01 01:01:43;;;;;;;75.03;33.30;;;1.80;99.90;;;;;;2054715;28;20077;-66
2022/12/01 01:02:43;;;;;;;78.78;34.25;;;1.80;99.90;;;;;;2062679;28;20082;-66
2022/12/01 01:03:44;;;;;;;74.18;34.28;;;1.80;99.90;;;;;;2055071;28;20105;-66
2022/12/01 01:04:44;;;;;;;78.50;34.78;;;1.90;99.90;;;;;;2062102;28;20035;-66
2022/12/01 01:05:45;;;;;;;71.30;32.63;;;1.90;99.90;;;;;;2062100;28;20037;-66
2022/12/01 01:06:46;;;;;;;69.05;31.75;;;1.90;99.90;;;;;;2054728;28;20035;-66
2022/12/01 01:07:47;;;;;;;74.43;33.22;;;1.90;99.90;;;;;;2054841;28;20497;-66
2022/12/01 01:08:47;;;;;;;71.72;32.20;;;1.90;99.90;;;;;;2055442;28;20042;-66
2022/12/01 01:09:48;;;;;;;75.13;32.78;;;1.90;99.90;;;;;;2055599;28;20037;-66
2022/12/01 01:10:49;;;;;;;70.65;32.55;;;1.90;99.90;;;;;;2055373;28;20034;-66
2022/12/01 01:11:50;;;;;;;71.80;31.75;;;1.90;99.90;;;;;;2055306;28;20103;-66
2022/12/01 01:12:50;;;;;;;73.10;34.10;;;1.90;99.90;;;;;;2055078;28;20474;-66
2022/12/01 01:13:51;;;;;;;70.28;31.88;;;1.90;99.90;;;;;;2054843;28;20038;-66
2022/12/01 01:14:52;;;;;;;72.97;33.58;;;1.90;99.90;;;;;;2054625;28;20030;-66
2022/12/01 01:16:18;;;;;;;74.63;34.20;;;1.90;99.90;;;;;;2054672;28;20050;-66
2022/12/01 01:17:19;;;;;;;72.50;32.60;;;1.90;99.90;;;;;;2056030;28;20027;-66
2022/12/01 01:18:19;;;;;;;72.03;33.00;;;1.90;99.90;;;;;;2055669;28;20027;-65
2022/12/01 01:19:20;;;;;;;70.78;31.83;;;1.90;99.90;;;;;;2055814;28;20085;-65
2022/12/01 01:20:21;;;;;;;69.00;32.33;;;1.90;99.90;;;;;;2055788;28;20070;-66
2022/12/01 01:21:22;;;;;;;74.65;33.25;;;1.90;99.90;;;;;;2055914;28;20037;-67
2022/12/01 01:22:23;;;;;;;75.97;34.70;;;1.90;99.90;;;;;;2056223;28;20134;-67
2022/12/01 01:23:24;;;;;;;74.82;33.53;;;1.90;99.90;;;;;;2055876;28;20505;-66
2022/12/01 01:24:25;;;;;;;70.10;32.05;;;1.80;99.90;;;;;;2056121;28;20019;-66
2022/12/01 01:25:26;;;;;;;72.78;32.75;;;1.80;99.90;;;;;;2063607;28;20443;-66
2022/12/01 01:26:30;;;;;;;68.72;31.83;;;1.90;99.90;;;;;;2063449;28;20409;-66
2022/12/01 01:27:32;;;;;;;68.55;31.73;;;1.80;99.90;;;;;;2056254;28;20023;-66
2022/12/01 01:28:33;;;;;;;70.45;33.22;;;1.80;99.90;;;;;;2056359;28;20026;-66
2022/12/01 01:29:35;;;;;;;67.75;32.08;;;1.80;99.90;;;;;;2056480;28;20039;-65
2022/12/01 01:30:38;;;;;;;70.60;32.95;;;1.80;99.90;;;;;;2056413;28;20073;-65
2022/12/01 01:31:39;;;;;;;70.43;31.88;;;1.80;99.90;;;;;;2056449;28;20027;-66
2022/12/01 01:32:41;;;;;;;70.18;32.05;;;1.80;99.90;;;;;;2056307;28;20027;-64
2022/12/01 01:33:42;;;;;;;70.53;32.60;;;1.80;99.90;;;;;;2056281;28;20569;-65
2022/12/01 01:34:42;;;;;;;69.90;31.95;;;1.80;99.90;;;;;;2063478;28;20026;-65
2022/12/01 01:35:43;;;;;;;67.72;31.77;;;1.80;99.90;;;;;;2063240;28;20124;-66
2022/12/01 01:36:44;;;;;;;68.78;32.70;;;1.80;99.90;;;;;;2056231;28;20026;-66
2022/12/01 01:37:44;;;;;;;69.05;31.75;;;1.80;99.90;;;;;;2056084;28;20716;-66
2022/12/01 01:38:45;;;;;;;67.80;31.40;;;1.80;99.90;;;;;;2056268;28;20045;-67
2022/12/01 01:39:46;;;;;;;66.82;31.17;;;1.80;99.90;;;;;;2071404;28;20053;-66
2022/12/01 01:40:47;;;;;;;70.05;31.25;;;1.80;99.90;;;;;;2063742;28;20026;-67
2022/12/01 01:41:47;;;;;;;70.40;31.70;;;1.80;99.90;;;;;;2056151;28;20114;-66
2022/12/01 01:42:48;;;;;;;73.47;32.13;;;1.80;99.90;;;;;;2056100;28;20030;-66
2022/12/01 01:43:50;;;;;;;67.85;30.98;;;1.70;99.90;;;;;;2055812;28;20081;-66
2022/12/01 01:44:56;;;;;;;71.20;32.08;;;1.70;99.90;;;;;;2055985;28;20341;-67
2022/12/01 01:45:57;;;;;;;69.57;31.38;;;1.70;99.90;;;;;;2055879;28;20031;-68
2022/12/01 01:46:57;;;;;;;68.78;31.77;;;1.70;99.90;;;;;;2055498;28;20035;-67
2022/12/01 01:47:59;;;;;;;66.70;31.20;;;1.70;99.90;;;;;;2055294;28;20089;-66
2022/12/01 01:49:08;;;;;;;72.63;32.70;;;1.70;99.90;;;;;;2055395;28;20784;-66
2022/12/01 01:50:12;;;;;;;72.97;32.83;;;1.70;99.90;;;;;;2056135;28;20077;-67
2022/12/01 01:51:14;;;;;;;71.43;31.08;;;1.70;99.90;;;;;;2056174;28;20034;-65
2022/12/01 01:52:16;;;;;;;72.97;31.58;;;1.70;99.90;;;;;;2056178;28;20054;-66
2022/12/01 01:53:17;;;;;;;68.85;31.65;;;1.70;99.90;;;;;;2056184;28;20027;-66
2022/12/01 01:54:32;;;;;;;73.03;32.60;;;1.80;99.90;;;;;;2055818;28;20840;-66
2022/12/01 01:55:34;;;;;;;72.43;32.53;;;1.70;99.90;;;;;;2055509;28;20468;-66
2022/12/01 01:56:36;;;;;;;71.55;31.02;;;1.80;99.90;;;;;;2055381;28;20085;-66
2022/12/01 01:57:37;;;;;;;69.78;31.73;;;1.80;99.90;;;;;;2056028;28;20030;-66
2022/12/01 01:58:39;;;;;;;69.03;31.13;;;1.80;99.90;;;;;;2056181;28;20023;-66
2022/12/01 01:59:44;;;;;;;71.00;31.25;;;1.80;99.90;;;;;;2063440;28;20746;-66
2022/12/01 02:00:45;;;;;;;66.30;31.17;;;1.90;99.90;;;;;;2062855;28;20027;-66
2022/12/01 02:01:49;;;;;;;67.78;30.67;;;1.90;99.90;;;;;;2063335;28;20077;-66
2022/12/01 02:02:52;;;;;;;68.78;30.50;;;1.90;99.90;;;;;;2063100;28;20015;-66
2022/12/01 02:03:53;;;;;;;69.53;32.42;;;1.90;99.90;;;;;;2055992;28;20046;-66
2022/12/01 02:05:01;;;;;;;73.05;32.22;;;1.90;99.90;;;;;;2055924;28;20073;-66
2022/12/01 02:06:01;;;;;;;76.78;33.78;;;2.00;99.90;;;;;;2055758;28;20034;-66
2022/12/01 02:07:03;;;;;;;72.63;33.30;;;1.90;99.90;;;;;;2056218;28;20073;-66
2022/12/01 02:08:05;;;;;;;72.22;32.85;;;1.90;99.90;;;;;;2055392;28;20084;-66
2022/12/01 02:09:05;;;;;;;74.45;33.33;;;1.90;99.90;;;;;;2055287;28;20049;-66
2022/12/01 02:10:09;;;;;;;71.85;32.15;;;1.80;99.90;;;;;;2055293;28;20043;-65
2022/12/01 02:11:47;;;;;;;74.60;31.85;;;1.80;99.90;;;;;;2055445;28;20109;-66
2022/12/01 02:13:04;;;;;;;75.07;31.73;;;1.90;99.90;;;;;;2056201;28;20035;-66
2022/12/01 02:14:20;;;;;;;74.90;31.85;;;1.80;99.90;;;;;;2055709;28;20105;-66
2022/12/01 02:15:37;;;;;;;71.03;31.08;;;1.80;99.90;;;;;;2056009;28;20030;-66
2022/12/01 02:16:52;;;;;;;72.88;31.50;;;1.80;99.90;;;;;;2055169;28;20039;-66
2022/12/01 02:18:08;;;;;;;78.57;33.33;;;1.80;99.90;;;;;;2055782;28;20069;-66
2022/12/01 02:19:44;;;;;;;71.82;31.48;;;1.80;99.90;;;;;;2055900;28;20035;-66
2022/12/01 02:21:24;;;;;;;70.80;30.20;;;1.80;99.90;;;;;;2055960;28;20034;-66
2022/12/01 02:22:38;;;;;;;70.72;31.75;;;1.80;99.90;;;;;;2052305;28;20072;-66
2022/12/01 02:23:50;;;;;;;71.18;30.90;;;1.70;99.90;;;;;;2041129;29;20779;-66
2022/12/01 02:24:57;;;;;;;69.30;30.08;;;1.70;99.90;;;;;;2034268;29;20071;-67
2022/12/01 02:26:19;;;;;;;73.18;31.45;;;1.70;99.90;;;;;;2047117;29;20502;-67
2022/12/01 02:27:28;;;;;;;71.75;30.15;;;1.70;99.90;;;;;;2047875;28;20039;-68
2022/12/01 02:28:53;;;;;;;69.85;31.05;;;1.60;99.90;;;;;;2046598;28;20031;-67
2022/12/01 02:30:05;;;;;;;68.85;28.65;;;1.60;99.90;;;;;;2047544;28;20047;-67
2022/12/01 02:31:30;;;;;;;70.13;29.05;;;1.60;99.90;;;;;;2048008;28;20038;-68
2022/12/01 02:32:55;;;;;;;67.40;29.17;;;1.60;99.90;;;;;;2048002;29;20031;-66
2022/12/01 02:34:05;;;;;;;66.13;30.13;;;1.70;99.90;;;;;;2053151;28;20114;-66
2022/12/01 02:35:28;;;;;;;69.70;30.02;;;1.70;99.90;;;;;;2055475;28;20514;-66
2022/12/01 02:36:36;;;;;;;71.28;30.63;;;1.70;99.90;;;;;;2056269;28;20034;-66
2022/12/01 02:37:56;;;;;;;76.82;32.95;;;1.70;99.90;;;;;;2056661;28;20413;-66
2022/12/01 02:39:08;;;;;;;73.25;30.65;;;1.70;99.90;;;;;;2048731;28;20035;-66
2022/12/01 02:40:22;;;;;;;71.10;30.60;;;1.70;99.90;;;;;;2048517;29;20846;-67
2022/12/01 02:41:35;;;;;;;73.90;31.05;;;1.70;99.90;;;;;;2048146;29;20035;-67
2022/12/01 02:42:50;;;;;;;70.75;29.90;;;1.70;99.90;;;;;;2047877;28;20079;-67
2022/12/01 02:44:17;;;;;;;70.25;29.13;;;1.70;99.90;;;;;;2048741;29;20035;-66
2022/12/01 02:45:31;;;;;;;71.00;29.70;;;1.70;99.90;;;;;;2042723;29;20042;-66
2022/12/01 02:46:38;;;;;;;66.07;29.95;;;1.70;99.90;;;;;;2047501;29;20563;-66
2022/12/01 02:47:40;;;;;;;72.00;31.58;;;1.70;99.90;;;;;;2048106;29;20023;-66
2022/12/01 02:48:44;;;;;;;73.80;31.42;;;1.70;99.90;;;;;;2048357;28;20038;-66
2022/12/01 02:49:54;;;;;;;76.18;32.70;;;1.70;99.90;;;;;;2048441;28;20130;-66
2022/12/01 02:51:00;;;;;;;76.03;33.05;;;1.70;99.90;;;;;;2048408;29;20043;-66
2022/12/01 02:52:04;;;;;;;73.20;31.38;;;1.70;99.90;;;;;;2048272;29;20035;-66
2022/12/01 02:53:07;;;;;;;75.40;32.55;;;1.60;99.90;;;;;;2048066;28;20402;-66
2022/12/01 02:54:08;;;;;;;78.43;31.90;;;1.60;99.90;;;;;;2046974;29;20105;-66
2022/12/01 02:55:09;;;;;;;79.38;33.97;;;1.60;99.90;;;;;;2047224;29;20031;-66
2022/12/01 02:56:11;;;;;;;73.80;31.13;;;1.60;99.90;;;;;;2047026;29;20542;-66
2022/12/01 02:57:14;;;;;;;75.78;31.25;;;1.60;99.90;;;;;;2039818;29;20027;-67
2022/12/01 02:58:15;;;;;;;75.03;31.02;;;1.60;99.90;;;;;;2047147;29;20406;-66
2022/12/01 02:59:15;;;;;;;76.68;31.95;;;1.60;99.90;;;;;;2050700;28;20019;-66
2022/12/01 03:00:17;;;;;;;78.35;32.00;;;1.60;99.90;;;;;;2055920;28;20612;-67
2022/12/01 03:01:36;;;;;;;75.72;31.13;;;1.60;99.90;;;;;;2055794;28;20038;-66
2022/12/01 03:03:08;;;;;;;76.13;31.98;;;1.60;99.90;;;;;;2055687;28;20078;-66
2022/12/01 03:04:12;;;;;;;73.40;30.98;;;1.60;99.90;;;;;;2055514;28;20034;-66
2022/12/01 03:05:54;;;;;;;71.65;29.85;;;1.70;99.90;;;;;;2054982;28;20034;-65
2022/12/01 03:07:09;;;;;;;72.93;29.65;;;1.70;99.90;;;;;;2046381;28;20039;-65
2022/12/01 03:08:28;;;;;;;71.65;29.48;;;1.70;99.90;;;;;;2055689;28;20027;-66
2022/12/01 03:09:37;;;;;;;74.78;31.48;;;1.70;99.90;;;;;;2055600;28;20034;-66
2022/12/01 03:10:49;;;;;;;74.35;31.00;;;1.70;99.90;;;;;;2056901;28;20019;-66
2022/12/01 03:11:59;;;;;;;74.00;30.27;;;1.70;99.90;;;;;;2054645;28;20030;-64
2022/12/01 03:13:56;;;;;;;78.38;31.30;;;1.80;99.90;;;;;;2056124;28;20122;-64
2022/12/01 03:15:06;;;;;;;83.72;31.52;;;1.70;99.90;;;;;;2039896;28;20031;-67
2022/12/01 03:16:36;;;;;;;84.25;32.25;;;1.80;99.90;;;;;;2055030;28;20097;-64
2022/12/01 03:17:59;;;;;;;80.83;32.20;;;1.80;99.90;;;;;;2054357;28;20030;-64
2022/12/01 03:19:13;;;;;;;82.25;31.17;;;1.80;99.90;;;;;;2055417;28;20262;-64
2022/12/01 03:20:33;;;;;;;86.35;33.13;;;1.80;99.90;;;;;;2055355;28;20066;-66
2022/12/01 03:22:02;;;;;;;86.82;32.35;;;1.70;99.90;;;;;;2055606;28;20035;-64
2022/12/01 03:23:11;;;;;;;80.80;31.75;;;1.70;99.90;;;;;;2055636;28;20037;-66
2022/12/01 03:24:22;;;;;;;84.65;32.33;;;1.70;99.90;;;;;;2055707;28;20019;-63
2022/12/01 03:25:25;;;;;;;80.90;32.78;;;1.70;99.90;;;;;;2055982;28;20035;-65
2022/12/01 03:26:29;;;;;;;80.45;32.20;;;1.70;99.90;;;;;;2055345;28;20708;-65
2022/12/01 03:27:34;;;;;;;86.65;33.97;;;1.70;99.90;;;;;;2055627;28;20077;-65
2022/12/01 03:28:49;;;;;;;89.28;34.90;;;1.70;99.90;;;;;;2055380;28;20022;-65
2022/12/01 03:29:54;;;;;;;87.95;33.22;;;1.70;99.90;;;;;;2055425;28;20027;-65
2022/12/01 03:31:00;;;;;;;87.28;33.45;;;1.70;99.90;;;;;;2055446;28;20038;-66
2022/12/01 03:32:08;;;;;;;85.55;33.58;;;1.70;99.90;;;;;;2055418;28;20527;-65
2022/12/01 03:33:17;;;;;;;79.30;31.98;;;1.70;99.90;;;;;;2055364;28;20035;-65
2022/12/01 03:34:31;;;;;;;87.03;32.08;;;1.70;99.90;;;;;;2055166;28;20058;-65
2022/12/01 03:35:41;;;;;;;83.20;32.28;;;1.70;99.90;;;;;;2055303;28;20026;-65
2022/12/01 03:36:47;;;;;;;87.40;33.40;;;1.70;99.90;;;;;;2055221;28;20457;-65
2022/12/01 03:37:59;;;;;;;86.97;32.92;;;1.70;99.90;;;;;;2055492;28;20030;-66
2022/12/01 03:39:05;;;;;;;95.40;34.53;;;1.70;99.90;;;;;;2062743;28;20710;-65
2022/12/01 03:40:10;;;;;;;89.03;34.03;;;1.60;99.90;;;;;;2061960;28;20030;-64
2022/12/01 03:41:19;;;;;;;84.63;32.45;;;1.60;99.90;;;;;;2055099;28;20042;-65
2022/12/01 03:42:24;;;;;;;87.85;33.30;;;1.60;99.90;;;;;;2055535;28;20029;-65
2022/12/01 03:43:33;;;;;;;90.85;33.33;;;1.70;99.90;;;;;;2056361;28;20070;-64
2022/12/01 03:44:44;;;;;;;87.47;32.78;;;1.70;99.90;;;;;;2064020;28;20027;-67
2022/12/01 03:46:14;;;;;;;87.53;32.88;;;1.70;99.90;;;;;;2056839;28;20031;-65
2022/12/01 03:47:21;;;;;;;89.03;33.53;;;1.70;99.90;;;;;;2056502;28;20048;-65
2022/12/01 03:48:23;;;;;;;86.30;32.55;;;1.70;99.90;;;;;;2056850;28;20115;-64
2022/12/01 03:49:25;;;;;;;88.97;33.88;;;1.70;99.90;;;;;;2057195;28;20500;-65
2022/12/01 03:50:35;;;;;;;83.32;32.90;;;1.70;99.90;;;;;;2057797;28;20477;-65
2022/12/01 03:51:54;;;;;;;84.35;32.58;;;1.70;99.90;;;;;;2057471;28;20031;-65
2022/12/01 03:53:18;;;;;;;94.53;32.70;;;1.70;99.90;;;;;;2056299;28;20049;-65
2022/12/01 03:54:28;;;;;;;95.97;34.03;;;1.60;99.90;;;;;;2055273;28;20034;-65
2022/12/01 03:55:32;;;;;;;87.07;33.28;;;1.60;99.90;;;;;;2054366;28;20035;-65
2022/12/01 03:56:43;;;;;;;86.72;32.22;;;1.60;99.90;;;;;;2054423;28;20042;-65
2022/12/01 03:58:03;;;;;;;86.25;31.55;;;1.60;99.90;;;;;;2054884;28;20126;-65
2022/12/01 03:59:07;;;;;;;81.65;31.65;;;1.70;99.90;;;;;;2054802;28;20477;-65
2022/12/01 04:00:10;;;;;;;85.60;32.33;;;1.70;99.90;;;;;;2054564;28;20035;-65
2022/12/01 04:01:13;;;;;;;86.97;33.70;;;1.70;99.90;;;;;;2054708;28;20081;-65
2022/12/01 04:02:16;;;;;;;87.38;33.00;;;1.80;99.90;;;;;;2055078;28;20050;-64
2022/12/01 04:03:21;;;;;;;87.63;32.70;;;1.80;99.90;;;;;;2055218;28;20031;-65
2022/12/01 04:04:22;;;;;;;88.00;33.03;;;1.80;99.90;;;;;;2055089;28;20118;-65
2022/12/01 04:05:24;;;;;;;83.82;31.92;;;1.80;99.90;;;;;;2055316;28;20037;-65
2022/12/01 04:06:25;;;;;;;91.13;33.63;;;1.80;99.90;;;;;;2059369;28;20034;-65
2022/12/01 04:07:25;;;;;;;89.07;34.38;;;1.80;99.90;;;;;;2057961;28;20034;-65
2022/12/01 04:08:26;;;;;;;86.72;33.92;;;1.80;99.90;;;;;;2055196;28;20058;-65
2022/12/01 04:09:27;;;;;;;83.40;32.28;;;1.80;99.90;;;;;;2054615;28;20027;-65
2022/12/01 04:10:28;;;;;;;91.80;34.25;;;1.80;99.90;;;;;;2054288;28;20437;-65
2022/12/01 04:12:48;;;;;;;90.13;32.65;;;1.80;99.90;;;;;;2054813;28;20556;-65
2022/12/01 04:13:49;;;;;;;83.25;31.83;;;1.80;99.90;;;;;;2055177;28;20027;-65
2022/12/01 04:14:50;;;;;;;83.00;31.30;;;1.80;99.90;;;;;;2055018;28;20015;-65
2022/12/01 04:15:52;;;;;;;83.15;32.90;;;1.80;99.90;;;;;;2055079;28;20489;-65
2022/12/01 04:16:52;;;;;;;83.32;32.08;;;1.80;99.90;;;;;;2063148;28;20053;-65
2022/12/01 04:17:53;;;;;;;82.95;31.65;;;1.80;99.90;;;;;;2064771;28;20034;-65
2022/12/01 04:18:54;;;;;;;83.25;32.35;;;1.80;99.90;;;;;;2054668;28;20531;-65
2022/12/01 04:19:56;;;;;;;95.97;35.00;;;1.80;99.90;;;;;;2055027;28;20062;-67
2022/12/01 04:20:57;;;;;;;89.15;32.83;;;1.80;99.90;;;;;;2055971;28;20511;-67
2022/12/01 04:21:58;;;;;;;89.75;32.75;;;1.80;99.90;;;;;;2055365;28;20069;-67
2022/12/01 04:22:58;;;;;;;93.53;34.60;;;1.80;99.90;;;;;;2055505;28;20019;-66
2022/12/01 04:23:59;;;;;;;94.90;35.53;;;1.80;99.90;;;;;;2055357;28;20089;-66
2022/12/01 04:25:00;;;;;;;94.50;34.78;;;1.80;99.90;;;;;;2055277;28;20031;-65
2022/12/01 04:26:03;;;;;;;101.18;35.83;;;1.80;99.90;;;;;;2054792;28;20030;-67
2022/12/01 04:27:03;;;;;;;101.78;36.38;;;1.80;99.90;;;;;;2055217;28;20062;-65
2022/12/01 04:28:04;;;;;;;94.70;35.00;;;1.70;99.90;;;;;;2054994;28;20034;-66
2022/12/01 04:29:07;;;;;;;93.03;35.00;;;1.70;99.90;;;;;;2054941;28;20524;-65
2022/12/01 04:30:09;;;;;;;95.60;34.97;;;1.70;99.90;;;;;;2065266;28;20034;-66
2022/12/01 04:31:10;;;;;;;93.25;33.67;;;1.70;99.90;;;;;;2067403;28;20038;-66
2022/12/01 04:32:12;;;;;;;89.32;33.30;;;1.70;99.90;;;;;;2054788;28;20121;-65
2022/12/01 04:33:12;;;;;;;98.47;35.63;;;1.70;99.90;;;;;;2054315;28;20057;-65
2022/12/01 04:34:13;;;;;;;93.93;35.13;;;1.70;99.90;;;;;;2054246;28;20489;-66
2022/12/01 04:35:14;;;;;;;95.75;35.35;;;1.70;99.90;;;;;;2055172;28;20144;-65
2022/12/01 04:36:15;;;;;;;96.40;35.22;;;1.70;99.90;;;;;;2054631;28;20038;-66
2022/12/01 04:37:16;;;;;;;96.63;34.28;;;1.70;99.90;;;;;;2055125;28;20059;-65
2022/12/01 04:38:17;;;;;;;96.35;34.17;;;1.70;99.90;;;;;;2062553;28;20216;-66
2022/12/01 04:39:17;;;;;;;99.57;35.72;;;1.80;99.90;;;;;;2062478;28;20126;-66
2022/12/01 04:40:20;;;;;;;93.45;34.20;;;1.70;99.90;;;;;;2055185;28;20045;-65
2022/12/01 04:41:21;;;;;;;93.10;33.72;;;1.70;99.90;;;;;;2055415;28;20022;-65
2022/12/01 04:42:21;;;;;;;85.75;32.70;;;1.70;99.90;;;;;;2055114;28;20557;-65
2022/12/01 04:43:22;;;;;;;95.75;33.90;;;1.70;99.90;;;;;;2054430;28;20031;-65
2022/12/01 04:44:23;;;;;;;86.80;32.78;;;1.70;99.90;;;;;;2053970;28;20109;-66
2022/12/01 04:45:23;;;;;;;91.43;33.85;;;1.70;99.90;;;;;;2054170;28;20109;-65
2022/12/01 04:46:24;;;;;;;91.65;33.38;;;1.70;99.90;;;;;;2046183;28;20035;-65
2022/12/01 04:47:25;;;;;;;95.63;34.72;;;1.70;99.90;;;;;;2046623;28;20705;-65
2022/12/01 04:48:26;;;;;;;95.40;33.80;;;1.70;99.90;;;;;;2047116;28;20078;-65
2022/12/01 04:49:27;;;;;;;91.47;34.83;;;1.80;99.90;;;;;;2047126;29;20070;-66
2022/12/01 04:50:29;;;;;;;98.55;35.38;;;1.70;99.90;;;;;;2046385;28;20036;-66
2022/12/01 04:51:30;;;;;;;98.57;36.33;;;1.80;99.90;;;;;;2046989;28;20092;-66
2022/12/01 04:52:30;;;;;;;94.68;34.47;;;1.80;99.90;;;;;;2056495;28;20042;-65
2022/12/01 04:53:31;;;;;;;89.50;33.13;;;1.80;99.90;;;;;;2056673;28;20102;-65
2022/12/01 04:54:32;;;;;;;92.18;34.00;;;1.80;99.90;;;;;;2056695;28;20531;-65
2022/12/01 04:55:37;;;;;;;94.63;34.42;;;1.70;99.90;;;;;;2056063;28;20031;-66
2022/12/01 04:56:38;;;;;;;93.05;35.05;;;1.70;99.90;;;;;;2056131;28;20026;-65
2022/12/01 04:57:40;;;;;;;91.15;34.35;;;1.70;99.90;;;;;;2056696;28;20031;-65
2022/12/01 04:58:40;;;;;;;92.25;34.00;;;1.70;99.90;;;;;;2056709;28;20118;-65
2022/12/01 04:59:41;;;;;;;93.78;34.13;;;1.80;99.90;;;;;;2055704;28;20034;-66
2022/12/01 05:00:42;;;;;;;91.43;34.55;;;1.80;99.90;;;;;;2056063;28;20663;-65
2022/12/01 05:01:43;;;;;;;91.32;34.42;;;1.80;99.90;;;;;;2056716;28;20549;-65
2022/12/01 05:02:44;;;;;;;89.20;33.92;;;1.70;99.90;;;;;;2061505;28;20026;-65
2022/12/01 05:03:49;;;;;;;88.70;33.53;;;1.70;99.90;;;;;;2056861;28;20144;-66
2022/12/01 05:04:50;;;;;;;91.88;33.85;;;1.70;99.90;;;;;;2056452;28;20031;-66
2022/12/01 05:06:03;;;;;;;90.70;33.65;;;1.70;99.90;;;;;;2056343;28;20035;-66
2022/12/01 05:07:04;;;;;;;85.65;33.03;;;1.70;99.90;;;;;;2056774;28;20035;-66
2022/12/01 05:08:04;;;;;;;88.72;32.65;;;1.70;99.90;;;;;;2056449;28;20066;-66
2022/12/01 05:09:06;;;;;;;83.03;32.10;;;1.70;99.90;;;;;;2056547;28;20035;-66
2022/12/01 05:10:07;;;;;;;84.05;32.35;;;1.70;99.90;;;;;;2058136;28;20510;-67
2022/12/01 05:11:10;;;;;;;87.97;33.38;;;1.70;99.90;;;;;;2055830;28;20505;-66
2022/12/01 05:12:11;;;;;;;86.40;32.47;;;1.70;99.90;;;;;;2056195;28;20053;-66
2022/12/01 05:13:12;;;;;;;89.82;32.95;;;1.70;99.90;;;;;;2063947;28;20041;-66
2022/12/01 05:14:12;;;;;;;86.20;33.45;;;1.60;99.90;;;;;;2056393;28;20385;-67
2022/12/01 05:15:13;;;;;;;86.20;32.35;;;1.70;99.90;;;;;;2063818;28;20525;-66
2022/12/01 05:16:19;;;;;;;95.25;35.42;;;1.60;99.90;;;;;;2055575;28;20030;-67
2022/12/01 05:17:20;;;;;;;94.05;34.60;;;1.60;99.90;;;;;;2055924;28;20109;-66
2022/12/01 05:18:20;;;;;;;92.63;34.78;;;1.70;99.90;;;;;;2063884;28;20453;-67
2022/12/01 05:20:56;;;;;;;94.07;34.40;;;1.70;99.90;;;;;;2056370;28;20030;-67
2022/12/01 05:21:56;;;;;;;97.10;35.67;;;1.70;99.90;;;;;;2055587;28;20026;-67
2022/12/01 05:22:58;;;;;;;93.57;35.40;;;1.70;99.90;;;;;;2049023;28;20457;-66
2022/12/01 05:23:58;;;;;;;107.15;36.45;;;1.60;99.90;;;;;;2056082;28;20041;-66
2022/12/01 05:24:59;;;;;;;97.40;36.72;;;1.60;99.90;;;;;;2056274;28;20031;-67
2022/12/01 05:26:01;;;;;;;97.72;34.90;;;1.70;99.90;;;;;;2065083;28;20061;-67
2022/12/01 05:27:02;;;;;;;101.20;36.13;;;1.70;99.90;;;;;;2069754;28;20077;-66
2022/12/01 05:28:04;;;;;;;97.13;35.33;;;1.70;99.90;;;;;;2066036;28;20496;-66
2022/12/01 05:29:04;;;;;;;98.72;35.17;;;1.60;99.90;;;;;;2063932;28;20052;-66
2022/12/01 05:30:06;;;;;;;93.60;34.58;;;1.70;99.90;;;;;;2048040;28;20039;-66
2022/12/01 05:31:07;;;;;;;89.82;33.45;;;1.60;99.90;;;;;;2056234;28;20137;-67
2022/12/01 05:32:08;;;;;;;95.47;34.95;;;1.60;99.90;;;;;;2056124;28;20031;-67
2022/12/01 05:33:08;;;;;;;94.40;35.22;;;1.70;99.90;;;;;;2056061;28;20035;-66
2022/12/01 05:34:09;;;;;;;97.75;35.03;;;1.70;99.90;;;;;;2063630;28;20037;-65
2022/12/01 05:35:10;;;;;;;90.97;34.90;;;1.70;99.90;;;;;;2056038;28;20042;-65
2022/12/01 05:36:10;;;;;;;97.35;35.67;;;1.70;99.90;;;;;;2056082;28;20114;-65
2022/12/01 05:37:11;;;;;;;94.93;35.15;;;1.70;99.90;;;;;;2072308;28;20026;-66
2022/12/01 05:38:12;;;;;;;97.93;35.10;;;1.70;99.90;;;;;;2072207;28;20022;-66